sensor_id;sensor_type;location;lat;lon;timestamp;pressure;altitude;pressure_sealevel;temperature;humidity
11523;BME280;40093;43.224;27.910;2023-02-13T00:01:13;102494.03;;;1.64;88.69
11523;BME280;40093;43.224;27.910;2023-02-13T00:03:40;102505.19;;;1.67;88.92
11523;BME280;40093;43.224;27.910;2023-02-13T00:06:07;102492.44;;;1.73;88.43
11523;BME280;40093;43.224;27.910;2023-02-13T00:08:34;102501.41;;;1.78;88.53
11523;BME280;40093;43.224;27.910;2023-02-13T00:11:01;102494.03;;;1.64;88.91
11523;BME280;40093;43.224;27.910;2023-02-13T00:13:29;102504.06;;;1.63;89.04
11523;BME280;40093;43.224;27.910;2023-02-13T00:15:57;102504.63;;;1.60;89.24
11523;BME280;40093;43.224;27.910;2023-02-13T00:18:25;102498.66;;;1.58;89.02
11523;BME280;40093;43.224;27.910;2023-02-13T00:20:59;102511.09;;;1.54;89.19
11523;BME280;40093;43.224;27.910;2023-02-13T00:23:26;102496.19;;;1.57;89.41
11523;BME280;40093;43.224;27.910;2023-02-13T00:25:52;102514.94;;;1.58;89.64
11523;BME280;40093;43.224;27.910;2023-02-13T00:28:19;102503.53;;;1.56;89.67
11523;BME280;40093;43.224;27.910;2023-02-13T00:30:48;102520.34;;;1.58;89.48
11523;BME280;40093;43.224;27.910;2023-02-13T00:33:14;102516.84;;;1.68;89.08
11523;BME280;40093;43.224;27.910;2023-02-13T00:35:41;102515.22;;;1.67;88.88
11523;BME280;40093;43.224;27.910;2023-02-13T00:38:08;102525.25;;;1.56;89.48
11523;BME280;40093;43.224;27.910;2023-02-13T00:40:35;102507.28;;;1.50;89.90
11523;BME280;40093;43.224;27.910;2023-02-13T00:43:02;102519.22;;;1.49;90.45
11523;BME280;40093;43.224;27.910;2023-02-13T00:45:29;102525.22;;;1.46;90.58
11523;BME280;40093;43.224;27.910;2023-02-13T00:47:57;102531.19;;;1.53;90.66
11523;BME280;40093;43.224;27.910;2023-02-13T00:50:24;102519.78;;;1.46;90.71
11523;BME280;40093;43.224;27.910;2023-02-13T00:52:52;102523.25;;;1.32;91.61
11523;BME280;40093;43.224;27.910;2023-02-13T00:55:19;102527.03;;;1.31;91.70
11523;BME280;40093;43.224;27.910;2023-02-13T00:57:46;102532.22;;;1.37;91.86
11523;BME280;40093;43.224;27.910;2023-02-13T01:00:14;102518.41;;;1.39;91.29
11523;BME280;40093;43.224;27.910;2023-02-13T01:02:41;102533.81;;;1.28;91.55
11523;BME280;40093;43.224;27.910;2023-02-13T01:05:09;102533.56;;;1.35;91.51
11523;BME280;40093;43.224;27.910;2023-02-13T01:07:36;102532.19;;;1.32;91.74
11523;BME280;40093;43.224;27.910;2023-02-13T01:10:03;102519.69;;;1.26;91.79
11523;BME280;40093;43.224;27.910;2023-02-13T01:12:30;102519.75;;;1.36;91.86
11523;BME280;40093;43.224;27.910;2023-02-13T01:14:57;102528.41;;;1.33;91.61
11523;BME280;40093;43.224;27.910;2023-02-13T01:17:24;102518.63;;;1.32;91.42
11523;BME280;40093;43.224;27.910;2023-02-13T01:19:51;102531.69;;;1.40;91.11
11523;BME280;40093;43.224;27.910;2023-02-13T01:22:19;102531.94;;;1.34;91.38
11523;BME280;40093;43.224;27.910;2023-02-13T01:24:46;102529.91;;;1.09;92.76
11523;BME280;40093;43.224;27.910;2023-02-13T01:27:13;102530.25;;;1.23;93.39
11523;BME280;40093;43.224;27.910;2023-02-13T01:29:40;102524.00;;;1.22;92.95
11523;BME280;40093;43.224;27.910;2023-02-13T01:32:06;102524.59;;;1.29;92.93
11523;BME280;40093;43.224;27.910;2023-02-13T01:34:33;102523.00;;;1.38;92.51
11523;BME280;40093;43.224;27.910;2023-02-13T01:37:00;102521.38;;;1.37;91.92
11523;BME280;40093;43.224;27.910;2023-02-13T01:39:29;102526.78;;;1.37;92.10
11523;BME280;40093;43.224;27.910;2023-02-13T01:41:56;102534.09;;;1.32;92.37
11523;BME280;40093;43.224;27.910;2023-02-13T01:44:45;102518.03;;;1.15;93.05
11523;BME280;40093;43.224;27.910;2023-02-13T01:47:16;102521.25;;;1.07;93.41
11523;BME280;40093;43.224;27.910;2023-02-13T01:49:45;102518.56;;;1.12;93.48
11523;BME280;40093;43.224;27.910;2023-02-13T01:52:13;102518.16;;;0.89;94.92
11523;BME280;40093;43.224;27.910;2023-02-13T01:54:43;102535.03;;;0.96;94.95
11523;BME280;40093;43.224;27.910;2023-02-13T01:57:15;102528.28;;;1.03;94.85
11523;BME280;40093;43.224;27.910;2023-02-13T01:59:46;102533.19;;;1.11;94.59
11523;BME280;40093;43.224;27.910;2023-02-13T02:02:15;102528.88;;;1.15;94.44
11523;BME280;40093;43.224;27.910;2023-02-13T02:04:45;102527.75;;;1.11;94.00
11523;BME280;40093;43.224;27.910;2023-02-13T02:07:19;102528.81;;;1.05;93.87
11523;BME280;40093;43.224;27.910;2023-02-13T02:09:48;102532.88;;;0.98;94.40
11523;BME280;40093;43.224;27.910;2023-02-13T02:12:22;102524.44;;;0.99;94.50
11523;BME280;40093;43.224;27.910;2023-02-13T02:14:53;102536.97;;;1.05;94.50
11523;BME280;40093;43.224;27.910;2023-02-13T02:17:22;102535.34;;;1.09;93.90
11523;BME280;40093;43.224;27.910;2023-02-13T02:19:59;102531.00;;;1.03;94.01
11523;BME280;40093;43.224;27.910;2023-02-13T02:29:27;102537.63;;;0.76;95.81
11523;BME280;40093;43.224;27.910;2023-02-13T02:32:32;102548.22;;;0.82;95.53
11523;BME280;40093;43.224;27.910;2023-02-13T02:35:12;102544.69;;;0.82;95.65
11523;BME280;40093;43.224;27.910;2023-02-13T02:37:51;102540.09;;;0.82;95.60
11523;BME280;40093;43.224;27.910;2023-02-13T02:40:25;102545.47;;;0.77;95.77
11523;BME280;40093;43.224;27.910;2023-02-13T02:43:07;102549.03;;;0.83;95.63
11523;BME280;40093;43.224;27.910;2023-02-13T02:45:43;102548.22;;;0.82;95.45
11523;BME280;40093;43.224;27.910;2023-02-13T02:48:22;102551.72;;;0.78;95.04
11523;BME280;40093;43.224;27.910;2023-02-13T02:51:16;102554.28;;;0.58;95.88
11523;BME280;40093;43.224;27.910;2023-02-13T02:53:52;102560.56;;;0.63;95.85
11523;BME280;40093;43.224;27.910;2023-02-13T02:56:25;102559.53;;;0.69;96.29
11523;BME280;40093;43.224;27.910;2023-02-13T02:58:59;102558.06;;;0.57;96.09
11523;BME280;40093;43.224;27.910;2023-02-13T03:01:45;102568.44;;;0.65;95.85
11523;BME280;40093;43.224;27.910;2023-02-13T03:04:35;102566.81;;;0.64;95.87
11523;BME280;40093;43.224;27.910;2023-02-13T03:07:21;102571.16;;;0.65;95.28
11523;BME280;40093;43.224;27.910;2023-02-13T03:09:51;102576.47;;;0.55;95.68
11523;BME280;40093;43.224;27.910;2023-02-13T03:12:41;102557.16;;;0.46;96.24
11523;BME280;40093;43.224;27.910;2023-02-13T03:15:27;102570.16;;;0.44;96.55
11523;BME280;40093;43.224;27.910;2023-02-13T03:17:55;102557.69;;;0.43;96.43
11523;BME280;40093;43.224;27.910;2023-02-13T03:20:45;102556.28;;;0.36;96.68
11523;BME280;40093;43.224;27.910;2023-02-13T03:23:40;102553.56;;;0.36;97.32
11523;BME280;40093;43.224;27.910;2023-02-13T03:26:25;102559.84;;;0.41;97.17
11523;BME280;40093;43.224;27.910;2023-02-13T03:29:03;102561.47;;;0.42;96.74
11523;BME280;40093;43.224;27.910;2023-02-13T03:31:53;102562.81;;;0.40;96.47
11523;BME280;40093;43.224;27.910;2023-02-13T03:34:27;102559.31;;;0.44;96.46
11523;BME280;40093;43.224;27.910;2023-02-13T03:37:23;102559.09;;;0.51;95.78
11523;BME280;40093;43.224;27.910;2023-02-13T03:40:14;102556.69;;;0.54;96.04
11523;BME280;40093;43.224;27.910;2023-02-13T03:42:46;102552.56;;;0.47;95.53
11523;BME280;40093;43.224;27.910;2023-02-13T03:45:18;102563.09;;;0.43;96.03
11523;BME280;40093;43.224;27.910;2023-02-13T03:48:06;102569.84;;;0.41;95.47
11523;BME280;40093;43.224;27.910;2023-02-13T03:50:55;102573.97;;;0.17;96.52
11523;BME280;40093;43.224;27.910;2023-02-13T03:53:26;102563.53;;;0.30;96.18
11523;BME280;40093;43.224;27.910;2023-02-13T03:55:55;102568.13;;;0.30;96.39
11523;BME280;40093;43.224;27.910;2023-02-13T03:58:45;102571.13;;;0.28;96.07
11523;BME280;40093;43.224;27.910;2023-02-13T04:01:33;102574.72;;;0.07;97.29
11523;BME280;40093;43.224;27.910;2023-02-13T04:04:05;102576.66;;;0.12;97.62
11523;BME280;40093;43.224;27.910;2023-02-13T04:06:37;102560.63;;;0.05;97.14
11523;BME280;40093;43.224;27.910;2023-02-13T04:09:06;102563.88;;;0.07;97.78
11523;BME280;40093;43.224;27.910;2023-02-13T04:11:36;102566.94;;;0.16;97.66
11523;BME280;40093;43.224;27.910;2023-02-13T04:14:07;102561.50;;;0.11;97.28
11523;BME280;40093;43.224;27.910;2023-02-13T04:16:39;102573.19;;;0.16;97.06
11523;BME280;40093;43.224;27.910;2023-02-13T04:19:08;102575.91;;;0.21;96.71
11523;BME280;40093;43.224;27.910;2023-02-13T04:21:37;102569.50;;;0.32;96.22
11523;BME280;40093;43.224;27.910;2023-02-13T04:24:07;102575.25;;;0.36;95.92
11523;BME280;40093;43.224;27.910;2023-02-13T04:26:36;102574.81;;;0.17;95.43
11523;BME280;40093;43.224;27.910;2023-02-13T04:29:03;102579.09;;;0.13;96.17
11523;BME280;40093;43.224;27.910;2023-02-13T04:31:30;102576.34;;;0.08;96.70
11523;BME280;40093;43.224;27.910;2023-02-13T04:33:57;102569.34;;;0.12;96.38
11523;BME280;40093;43.224;27.910;2023-02-13T04:36:24;102565.84;;;0.17;96.52
11523;BME280;40093;43.224;27.910;2023-02-13T04:38:51;102567.91;;;0.05;96.01
11523;BME280;40093;43.224;27.910;2023-02-13T04:41:19;102584.41;;;0.03;96.32
11523;BME280;40093;43.224;27.910;2023-02-13T04:43:46;102572.88;;;0.13;96.54
11523;BME280;40093;43.224;27.910;2023-02-13T04:46:14;102561.31;;;-0.04;96.14
11523;BME280;40093;43.224;27.910;2023-02-13T04:48:41;102565.00;;;-0.15;97.81
11523;BME280;40093;43.224;27.910;2023-02-13T04:51:08;102556.53;;;-0.23;98.32
11523;BME280;40093;43.224;27.910;2023-02-13T04:53:35;102556.53;;;-0.23;97.98
11523;BME280;40093;43.224;27.910;2023-02-13T04:56:02;102560.97;;;-0.12;98.17
11523;BME280;40093;43.224;27.910;2023-02-13T04:58:30;102567.03;;;-0.01;97.47
11523;BME280;40093;43.224;27.910;2023-02-13T05:00:57;102575.09;;;-0.06;97.24
11523;BME280;40093;43.224;27.910;2023-02-13T05:03:24;102571.63;;;-0.27;98.11
11523;BME280;40093;43.224;27.910;2023-02-13T05:05:51;102558.28;;;-0.12;97.72
11523;BME280;40093;43.224;27.910;2023-02-13T05:08:18;102563.06;;;-0.19;97.96
11523;BME280;40093;43.224;27.910;2023-02-13T05:10:44;102582.34;;;-0.11;97.75
11523;BME280;40093;43.224;27.910;2023-02-13T05:13:11;102585.00;;;0.05;97.43
11523;BME280;40093;43.224;27.910;2023-02-13T05:15:39;102587.28;;;0.18;96.79
11523;BME280;40093;43.224;27.910;2023-02-13T05:18:07;102596.28;;;0.29;96.11
11523;BME280;40093;43.224;27.910;2023-02-13T05:20:34;102588.59;;;0.16;95.01
11523;BME280;40093;43.224;27.910;2023-02-13T05:23:01;102591.91;;;0.23;94.68
11523;BME280;40093;43.224;27.910;2023-02-13T05:25:46;102596.66;;;0.37;94.36
11523;BME280;40093;43.224;27.910;2023-02-13T05:28:13;102597.25;;;0.44;93.98
11523;BME280;40093;43.224;27.910;2023-02-13T05:30:58;102598.97;;;0.55;93.67
11523;BME280;40093;43.224;27.910;2023-02-13T05:33:25;102597.88;;;0.56;93.32
11523;BME280;40093;43.224;27.910;2023-02-13T05:35:52;102601.44;;;0.62;92.13
11523;BME280;40093;43.224;27.910;2023-02-13T05:38:18;102600.16;;;0.69;91.65
11523;BME280;40093;43.224;27.910;2023-02-13T05:40:45;102594.59;;;0.49;92.04
11523;BME280;40093;43.224;27.910;2023-02-13T05:43:12;102602.13;;;0.47;92.46
11523;BME280;40093;43.224;27.910;2023-02-13T05:45:39;102606.28;;;0.55;92.75
11523;BME280;40093;43.224;27.910;2023-02-13T05:48:07;102610.94;;;0.64;92.35
11523;BME280;40093;43.224;27.910;2023-02-13T05:50:34;102622.13;;;0.73;92.09
11523;BME280;40093;43.224;27.910;2023-02-13T05:53:01;102620.94;;;0.95;91.59
11523;BME280;40093;43.224;27.910;2023-02-13T05:55:28;102624.28;;;1.07;90.83
11523;BME280;40093;43.224;27.910;2023-02-13T05:57:55;102608.06;;;1.12;89.91
11523;BME280;40093;43.224;27.910;2023-02-13T06:00:22;102615.16;;;1.23;89.82
11523;BME280;40093;43.224;27.910;2023-02-13T06:02:49;102616.59;;;1.41;89.30
11523;BME280;40093;43.224;27.910;2023-02-13T06:05:18;102623.47;;;1.63;88.61
11523;BME280;40093;43.224;27.910;2023-02-13T06:07:44;102609.97;;;1.83;88.00
11523;BME280;40093;43.224;27.910;2023-02-13T06:10:12;102621.69;;;1.99;86.50
11523;BME280;40093;43.224;27.910;2023-02-13T06:12:38;102627.47;;;2.32;85.80
11523;BME280;40093;43.224;27.910;2023-02-13T06:15:06;102618.78;;;2.70;84.65
11523;BME280;40093;43.224;27.910;2023-02-13T06:17:33;102614.97;;;3.06;83.20
11523;BME280;40093;43.224;27.910;2023-02-13T06:20:00;102625.81;;;3.26;80.56
11523;BME280;40093;43.224;27.910;2023-02-13T06:22:28;102609.13;;;3.47;79.83
11523;BME280;40093;43.224;27.910;2023-02-13T06:24:55;102619.28;;;3.90;77.87
11523;BME280;40093;43.224;27.910;2023-02-13T06:27:22;102614.97;;;4.28;76.61
11523;BME280;40093;43.224;27.910;2023-02-13T06:29:48;102622.66;;;4.21;73.71
11523;BME280;40093;43.224;27.910;2023-02-13T06:32:15;102625.41;;;4.16;73.27
11523;BME280;40093;43.224;27.910;2023-02-13T06:34:42;102628.91;;;4.26;73.00
11523;BME280;40093;43.224;27.910;2023-02-13T06:37:09;102624.28;;;4.60;73.11
11523;BME280;40093;43.224;27.910;2023-02-13T06:39:37;102607.41;;;4.86;72.86
11523;BME280;40093;43.224;27.910;2023-02-13T06:42:04;102618.13;;;5.06;71.33
11523;BME280;40093;43.224;27.910;2023-02-13T06:44:31;102619.78;;;5.31;69.31
11523;BME280;40093;43.224;27.910;2023-02-13T06:46:57;102612.78;;;5.48;68.92
11523;BME280;40093;43.224;27.910;2023-02-13T06:49:24;102611.34;;;5.51;68.72
11523;BME280;40093;43.224;27.910;2023-02-13T06:51:51;102621.41;;;5.32;67.84
11523;BME280;40093;43.224;27.910;2023-02-13T06:54:18;102622.09;;;5.42;68.26
11523;BME280;40093;43.224;27.910;2023-02-13T06:56:46;102631.44;;;5.36;67.96
11523;BME280;40093;43.224;27.910;2023-02-13T06:59:13;102625.59;;;4.63;70.50
11523;BME280;40093;43.224;27.910;2023-02-13T07:01:40;102626.94;;;4.98;70.52
11523;BME280;40093;43.224;27.910;2023-02-13T07:04:07;102621.13;;;5.33;69.93
11523;BME280;40093;43.224;27.910;2023-02-13T07:06:33;102615.78;;;5.70;69.35
11523;BME280;40093;43.224;27.910;2023-02-13T07:09:01;102622.69;;;5.63;68.61
11523;BME280;40093;43.224;27.910;2023-02-13T07:11:28;102611.94;;;5.71;68.45
11523;BME280;40093;43.224;27.910;2023-02-13T07:13:57;102609.41;;;5.98;67.28
11523;BME280;40093;43.224;27.910;2023-02-13T07:16:23;102623.66;;;5.95;66.71
11523;BME280;40093;43.224;27.910;2023-02-13T07:18:50;102616.50;;;5.99;66.15
11523;BME280;40093;43.224;27.910;2023-02-13T07:21:17;102613.47;;;6.01;65.63
11523;BME280;40093;43.224;27.910;2023-02-13T07:23:44;102616.88;;;6.11;66.22
11523;BME280;40093;43.224;27.910;2023-02-13T07:26:11;102633.75;;;6.69;64.30
11523;BME280;40093;43.224;27.910;2023-02-13T07:28:37;102619.28;;;6.68;63.86
11523;BME280;40093;43.224;27.910;2023-02-13T07:31:06;102622.84;;;6.50;64.49
11523;BME280;40093;43.224;27.910;2023-02-13T07:33:33;102615.56;;;6.78;64.74
11523;BME280;40093;43.224;27.910;2023-02-13T07:36:00;102614.31;;;7.02;62.57
11523;BME280;40093;43.224;27.910;2023-02-13T07:38:28;102621.56;;;6.93;62.64
11523;BME280;40093;43.224;27.910;2023-02-13T07:40:57;102622.84;;;7.14;62.30
11523;BME280;40093;43.224;27.910;2023-02-13T07:43:24;102607.22;;;7.28;60.79
11523;BME280;40093;43.224;27.910;2023-02-13T07:45:51;102605.94;;;7.66;61.05
11523;BME280;40093;43.224;27.910;2023-02-13T07:48:22;102601.38;;;7.21;60.93
11523;BME280;40093;43.224;27.910;2023-02-13T07:50:51;102590.09;;;7.36;61.72
11523;BME280;40093;43.224;27.910;2023-02-13T07:53:18;102586.94;;;7.69;59.69
11523;BME280;40093;43.224;27.910;2023-02-13T07:55:47;102587.34;;;7.76;59.31
11523;BME280;40093;43.224;27.910;2023-02-13T07:58:13;102586.13;;;7.55;59.60
11523;BME280;40093;43.224;27.910;2023-02-13T08:00:40;102583.59;;;7.19;61.73
11523;BME280;40093;43.224;27.910;2023-02-13T08:03:09;102577.56;;;6.76;63.21
11523;BME280;40093;43.224;27.910;2023-02-13T08:05:37;102585.28;;;6.88;63.88
11523;BME280;40093;43.224;27.910;2023-02-13T08:08:05;102593.84;;;7.13;63.68
11523;BME280;40093;43.224;27.910;2023-02-13T08:10:32;102591.81;;;7.19;62.81
11523;BME280;40093;43.224;27.910;2023-02-13T08:13:16;102585.75;;;7.08;63.44
11523;BME280;40093;43.224;27.910;2023-02-13T08:15:43;102586.44;;;7.00;63.05
11523;BME280;40093;43.224;27.910;2023-02-13T08:18:11;102595.88;;;7.08;62.76
11523;BME280;40093;43.224;27.910;2023-02-13T08:20:39;102583.97;;;6.99;62.99
11523;BME280;40093;43.224;27.910;2023-02-13T08:23:09;102595.22;;;6.97;62.58
11523;BME280;40093;43.224;27.910;2023-02-13T08:25:36;102602.34;;;6.98;63.72
11523;BME280;40093;43.224;27.910;2023-02-13T08:28:04;102601.56;;;7.25;63.19
11523;BME280;40093;43.224;27.910;2023-02-13T08:30:31;102593.66;;;7.23;62.58
11523;BME280;40093;43.224;27.910;2023-02-13T08:32:58;102595.13;;;7.02;62.74
11523;BME280;40093;43.224;27.910;2023-02-13T08:35:24;102585.94;;;7.25;62.53
11523;BME280;40093;43.224;27.910;2023-02-13T08:37:55;102584.00;;;7.39;60.23
11523;BME280;40093;43.224;27.910;2023-02-13T08:40:22;102589.69;;;7.29;59.77
11523;BME280;40093;43.224;27.910;2023-02-13T08:42:49;102596.00;;;7.43;59.49
11523;BME280;40093;43.224;27.910;2023-02-13T08:45:16;102591.13;;;7.40;59.26
11523;BME280;40093;43.224;27.910;2023-02-13T08:47:43;102591.91;;;7.27;59.64
11523;BME280;40093;43.224;27.910;2023-02-13T08:50:10;102589.69;;;7.29;59.15
11523;BME280;40093;43.224;27.910;2023-02-13T08:52:37;102588.75;;;7.07;58.94
11523;BME280;40093;43.224;27.910;2023-02-13T08:55:05;102591.94;;;6.68;59.68
11523;BME280;40093;43.224;27.910;2023-02-13T08:57:33;102593.19;;;6.57;60.66
11523;BME280;40093;43.224;27.910;2023-02-13T09:00:00;102587.63;;;6.62;60.71
11523;BME280;40093;43.224;27.910;2023-02-13T09:02:26;102585.06;;;6.84;60.64
11523;BME280;40093;43.224;27.910;2023-02-13T09:04:53;102580.09;;;6.86;60.36
11523;BME280;40093;43.224;27.910;2023-02-13T09:07:20;102573.19;;;6.25;62.03
11523;BME280;40093;43.224;27.910;2023-02-13T09:09:47;102578.91;;;6.28;62.55
11523;BME280;40093;43.224;27.910;2023-02-13T09:12:15;102573.28;;;6.70;61.73
11523;BME280;40093;43.224;27.910;2023-02-13T09:14:43;102568.47;;;6.94;60.46
11523;BME280;40093;43.224;27.910;2023-02-13T09:17:09;102567.28;;;7.14;59.17
11523;BME280;40093;43.224;27.910;2023-02-13T09:19:36;102571.72;;;7.50;58.53
11523;BME280;40093;43.224;27.910;2023-02-13T09:22:03;102573.16;;;7.47;57.79
11523;BME280;40093;43.224;27.910;2023-02-13T09:24:30;102574.47;;;7.23;57.72
11523;BME280;40093;43.224;27.910;2023-02-13T09:26:57;102567.63;;;6.80;58.85
11523;BME280;40093;43.224;27.910;2023-02-13T09:29:25;102559.59;;;6.38;59.77
11523;BME280;40093;43.224;27.910;2023-02-13T09:31:55;102555.31;;;6.32;60.31
11523;BME280;40093;43.224;27.910;2023-02-13T09:34:22;102549.75;;;6.69;58.83
11523;BME280;40093;43.224;27.910;2023-02-13T09:36:50;102544.88;;;6.98;58.39
11523;BME280;40093;43.224;27.910;2023-02-13T09:39:17;102531.69;;;7.00;58.40
11523;BME280;40093;43.224;27.910;2023-02-13T09:41:46;102532.78;;;6.99;58.95
11523;BME280;40093;43.224;27.910;2023-02-13T09:44:17;102521.03;;;7.12;57.59
11523;BME280;40093;43.224;27.910;2023-02-13T09:47:03;102521.44;;;7.19;57.11
11523;BME280;40093;43.224;27.910;2023-02-13T09:49:33;102519.47;;;6.79;57.64
11523;BME280;40093;43.224;27.910;2023-02-13T09:52:01;102513.91;;;6.84;57.88
11523;BME280;40093;43.224;27.910;2023-02-13T09:54:28;102506.22;;;7.13;57.42
11523;BME280;40093;43.224;27.910;2023-02-13T09:56:59;102507.63;;;7.11;56.76
11523;BME280;40093;43.224;27.910;2023-02-13T09:59:36;102500.13;;;7.29;54.90
11523;BME280;40093;43.224;27.910;2023-02-13T10:02:21;102491.81;;;7.21;54.05
11523;BME280;40093;43.224;27.910;2023-02-13T10:04:56;102493.34;;;7.14;54.79
11523;BME280;40093;43.224;27.910;2023-02-13T10:07:32;102491.63;;;7.31;53.66
11523;BME280;40093;43.224;27.910;2023-02-13T10:10:06;102492.53;;;7.27;53.22
11523;BME280;40093;43.224;27.910;2023-02-13T10:12:52;102478.53;;;7.01;53.30
11523;BME280;40093;43.224;27.910;2023-02-13T10:15:27;102478.84;;;7.13;53.73
11523;BME280;40093;43.224;27.910;2023-02-13T10:18:02;102477.09;;;7.17;53.29
11523;BME280;40093;43.224;27.910;2023-02-13T10:20:33;102485.59;;;7.29;53.52
11523;BME280;40093;43.224;27.910;2023-02-13T10:23:15;102476.66;;;7.50;52.44
11523;BME280;40093;43.224;27.910;2023-02-13T10:25:46;102464.16;;;7.58;52.46
11523;BME280;40093;43.224;27.910;2023-02-13T10:28:16;102471.88;;;7.91;52.43
11523;BME280;40093;43.224;27.910;2023-02-13T10:30:51;102471.91;;;7.78;51.90
11523;BME280;40093;43.224;27.910;2023-02-13T10:33:24;102465.06;;;7.89;52.17
11523;BME280;40093;43.224;27.910;2023-02-13T10:35:59;102462.81;;;7.91;52.14
11523;BME280;40093;43.224;27.910;2023-02-13T10:38:29;102468.22;;;8.18;51.47
11523;BME280;40093;43.224;27.910;2023-02-13T10:41:15;102465.34;;;8.23;51.42
11523;BME280;40093;43.224;27.910;2023-02-13T10:43:51;102459.34;;;8.43;51.18
11523;BME280;40093;43.224;27.910;2023-02-13T10:46:29;102452.88;;;8.39;50.52
11523;BME280;40093;43.224;27.910;2023-02-13T10:49:19;102435.03;;;8.50;50.41
11523;BME280;40093;43.224;27.910;2023-02-13T10:51:52;102446.03;;;8.58;49.97
11523;BME280;40093;43.224;27.910;2023-02-13T10:54:39;102432.41;;;8.84;49.57
11523;BME280;40093;43.224;27.910;2023-02-13T10:57:15;102430.25;;;8.72;49.35
11523;BME280;40093;43.224;27.910;2023-02-13T10:59:57;102432.63;;;8.57;50.09
11523;BME280;40093;43.224;27.910;2023-02-13T11:02:29;102428.25;;;8.56;50.11
11523;BME280;40093;43.224;27.910;2023-02-13T11:05:00;102425.50;;;8.86;49.87
11523;BME280;40093;43.224;27.910;2023-02-13T11:07:29;102420.13;;;8.73;49.33
11523;BME280;40093;43.224;27.910;2023-02-13T11:10:00;102420.56;;;8.66;49.60
11523;BME280;40093;43.224;27.910;2023-02-13T11:12:31;102418.22;;;8.82;49.12
11523;BME280;40093;43.224;27.910;2023-02-13T11:15:00;102416.31;;;8.91;48.65
11523;BME280;40093;43.224;27.910;2023-02-13T11:17:29;102415.66;;;8.94;48.27
11523;BME280;40093;43.224;27.910;2023-02-13T11:20:00;102403.84;;;8.93;48.34
11523;BME280;40093;43.224;27.910;2023-02-13T11:22:32;102409.16;;;8.81;48.70
11523;BME280;40093;43.224;27.910;2023-02-13T11:25:02;102411.19;;;9.06;48.42
11523;BME280;40093;43.224;27.910;2023-02-13T11:27:33;102403.75;;;9.07;48.02
11523;BME280;40093;43.224;27.910;2023-02-13T11:30:03;102401.63;;;9.04;48.26
11523;BME280;40093;43.224;27.910;2023-02-13T11:32:31;102391.13;;;9.06;48.41
11523;BME280;40093;43.224;27.910;2023-02-13T11:35:25;102380.97;;;9.06;47.91
11523;BME280;40093;43.224;27.910;2023-02-13T11:38:10;102379.66;;;9.04;48.60
11523;BME280;40093;43.224;27.910;2023-02-13T11:40:37;102377.69;;;8.87;48.66
11523;BME280;40093;43.224;27.910;2023-02-13T11:43:06;102372.84;;;8.93;49.11
11523;BME280;40093;43.224;27.910;2023-02-13T11:45:34;102371.25;;;8.92;49.02
11523;BME280;40093;43.224;27.910;2023-02-13T11:48:08;102370.47;;;9.00;49.31
11523;BME280;40093;43.224;27.910;2023-02-13T11:50:50;102366.25;;;8.94;49.42
11523;BME280;40093;43.224;27.910;2023-02-13T11:53:19;102359.78;;;9.07;49.54
11523;BME280;40093;43.224;27.910;2023-02-13T11:56:01;102360.13;;;9.14;49.18
11523;BME280;40093;43.224;27.910;2023-02-13T11:58:28;102353.34;;;9.20;48.82
11523;BME280;40093;43.224;27.910;2023-02-13T12:01:23;102360.31;;;9.26;51.19
11523;BME280;40093;43.224;27.910;2023-02-13T12:04:02;102357.22;;;9.19;53.05
11523;BME280;40093;43.224;27.910;2023-02-13T12:06:31;102360.94;;;9.14;54.21
11523;BME280;40093;43.224;27.910;2023-02-13T12:09:07;102358.19;;;9.06;55.17
11523;BME280;40093;43.224;27.910;2023-02-13T12:11:41;102351.38;;;8.95;56.03
11523;BME280;40093;43.224;27.910;2023-02-13T12:14:13;102353.09;;;8.74;56.61
11523;BME280;40093;43.224;27.910;2023-02-13T12:16:45;102351.28;;;8.61;57.39
11523;BME280;40093;43.224;27.910;2023-02-13T12:19:18;102348.97;;;8.46;57.97
11523;BME280;40093;43.224;27.910;2023-02-13T12:22:01;102346.19;;;8.37;57.52
11523;BME280;40093;43.224;27.910;2023-02-13T12:24:50;102344.75;;;8.40;57.99
11523;BME280;40093;43.224;27.910;2023-02-13T12:27:31;102349.28;;;8.36;58.59
11523;BME280;40093;43.224;27.910;2023-02-13T12:33:28;102330.38;;;8.04;58.31
11523;BME280;40093;43.224;27.910;2023-02-13T12:36:06;102338.34;;;7.92;58.68
11523;BME280;40093;43.224;27.910;2023-02-13T12:38:50;102335.28;;;7.93;59.27
11523;BME280;40093;43.224;27.910;2023-02-13T12:41:21;102338.69;;;7.90;59.00
11523;BME280;40093;43.224;27.910;2023-02-13T12:44:27;102335.81;;;7.73;59.18
11523;BME280;40093;43.224;27.910;2023-02-13T12:47:09;102325.97;;;7.72;59.33
11523;BME280;40093;43.224;27.910;2023-02-13T12:50:05;102328.91;;;7.76;58.72
11523;BME280;40093;43.224;27.910;2023-02-13T12:52:47;102328.28;;;7.79;57.46
11523;BME280;40093;43.224;27.910;2023-02-13T12:58:17;102338.59;;;7.82;55.81
11523;BME280;40093;43.224;27.910;2023-02-13T13:00:50;102332.41;;;7.68;55.24
11523;BME280;40093;43.224;27.910;2023-02-13T13:03:34;102331.84;;;7.57;55.06
11523;BME280;40093;43.224;27.910;2023-02-13T13:06:17;102327.16;;;7.58;54.23
11523;BME280;40093;43.224;27.910;2023-02-13T13:09:04;102325.25;;;7.58;53.74
11523;BME280;40093;43.224;27.910;2023-02-13T13:11:46;102318.66;;;7.59;53.59
11523;BME280;40093;43.224;27.910;2023-02-13T13:14:22;102318.69;;;7.46;53.07
11523;BME280;40093;43.224;27.910;2023-02-13T13:16:57;102325.78;;;7.47;53.43
11523;BME280;40093;43.224;27.910;2023-02-13T13:19:31;102331.50;;;7.37;52.22
11523;BME280;40093;43.224;27.910;2023-02-13T13:22:04;102320.19;;;7.30;51.09
11523;BME280;40093;43.224;27.910;2023-02-13T13:24:46;102327.41;;;7.26;51.40
11523;BME280;40093;43.224;27.910;2023-02-13T13:27:19;102326.50;;;7.17;52.02